Sitiawan, Malaysia
Current Conditions -  °F | °C
As of 7:00 AM on Saturday 01 Nov 2014 (Local Time) from WMBA Reporting Station
Broken Clouds Broken Clouds  
Wind Chill: 75°   Ceiling: 26000
Heat Index: 75°   Visibility: 6mi
Dew Point: 73°   Wind: 0mph
Humidity: 94%   Direction: NA
Pressure: 29.77"   Gusts: NA
Location:  4.22°N, 100.7°E
Report Text: WMBA 312300Z 00000KT 9999 FEW002 FEW017CB SCT030 BKN260 24/23 Q1008
Loading
Personal Weather Stations






























Interactive Weather Map
Tropical Storm Tracking
New forecast layout! Learn more

10-Day Weather Forecast

Advertisements
Track Severe Weather on mobile